createdAt,value
2019-03-24T00:01:41.257Z,32.17
2019-03-24T00:04:06.119Z,31.93
2019-03-24T00:06:36.379Z,31.80
2019-03-24T00:09:08.236Z,32.80
2019-03-24T00:11:38.333Z,31.57
2019-03-24T00:14:08.379Z,29.25
2019-03-24T00:16:38.383Z,31.62
2019-03-24T00:19:08.344Z,29.00
2019-03-24T00:21:38.252Z,31.70
2019-03-24T00:24:08.303Z,30.35
2019-03-24T00:26:38.336Z,32.15
2019-03-24T00:29:08.275Z,31.10
2019-03-24T00:31:38.278Z,34.40
2019-03-24T00:34:08.490Z,33.80
2019-03-24T00:36:38.524Z,33.28
2019-03-24T00:39:08.825Z,33.38
2019-03-24T00:41:39.045Z,34.50
2019-03-24T00:44:09.114Z,34.13
2019-03-24T00:46:39.120Z,35.45
2019-03-24T00:49:09.202Z,33.20
2019-03-24T00:51:39.136Z,32.78
2019-03-24T00:54:09.117Z,32.67
2019-03-24T00:56:39.032Z,34.85
2019-03-24T00:59:09.044Z,32.60
2019-03-24T01:01:38.961Z,34.75
2019-03-24T01:04:09.017Z,33.98
2019-03-24T01:06:39.032Z,34.92
2019-03-24T01:09:10.050Z,35.38
2019-03-24T01:11:40.125Z,34.63
2019-03-24T01:14:10.136Z,34.10
2019-03-24T01:16:40.072Z,35.10
2019-03-24T01:19:10.388Z,33.05
2019-03-24T01:21:40.321Z,35.10
2019-03-24T01:24:10.431Z,33.35
2019-03-24T01:26:40.371Z,33.28
2019-03-24T01:29:10.356Z,34.13
2019-03-24T01:31:40.267Z,33.45
2019-03-24T01:34:10.305Z,35.43
2019-03-24T01:36:40.230Z,34.88
2019-03-24T01:39:10.294Z,34.58
2019-03-24T01:41:40.340Z,34.78
2019-03-24T01:44:10.312Z,36.63
2019-03-24T01:46:40.257Z,34.30
2019-03-24T01:49:10.274Z,31.48
2019-03-24T01:51:40.318Z,35.58
2019-03-24T01:54:10.235Z,38.00
2019-03-24T01:56:40.135Z,34.83
2019-03-24T01:59:10.087Z,35.55
2019-03-24T02:01:40.137Z,35.88
2019-03-24T02:04:10.244Z,37.05
2019-03-24T02:06:40.258Z,35.98
2019-03-24T02:09:10.904Z,37.03
2019-03-24T02:11:40.908Z,38.10
2019-03-24T02:14:10.793Z,36.88
2019-03-24T02:16:40.864Z,36.38
2019-03-24T02:19:10.880Z,35.75
2019-03-24T02:21:40.837Z,36.42
2019-03-24T02:24:11.069Z,34.60
2019-03-24T02:26:41.004Z,36.42
2019-03-24T02:29:10.965Z,34.70
2019-03-24T02:31:40.948Z,36.17
2019-03-24T02:34:10.852Z,37.05
2019-03-24T02:36:40.862Z,34.88
2019-03-24T02:39:10.901Z,36.77
2019-03-24T02:41:40.817Z,34.55
2019-03-24T02:44:10.805Z,37.13
2019-03-24T02:46:40.766Z,37.10
2019-03-24T02:49:10.860Z,34.33
2019-03-24T02:51:40.787Z,37.20
2019-03-24T02:54:11.315Z,39.48
2019-03-24T02:56:41.390Z,41.15
2019-03-24T02:59:11.424Z,38.88
2019-03-24T03:01:41.408Z,36.77
2019-03-24T03:04:11.347Z,40.30
2019-03-24T03:06:41.326Z,39.27
2019-03-24T03:09:11.346Z,40.92
2019-03-24T03:11:41.653Z,39.20
2019-03-24T03:14:11.553Z,38.90
2019-03-24T03:16:41.560Z,37.00
2019-03-24T03:19:11.516Z,34.75
2019-03-24T03:21:41.422Z,38.50
2019-03-24T03:24:12.061Z,35.25
2019-03-24T03:26:42.018Z,40.48
2019-03-24T03:29:12.040Z,37.85
2019-03-24T03:31:41.933Z,36.65
2019-03-24T03:34:12.030Z,36.95
2019-03-24T03:36:41.985Z,37.80
2019-03-24T03:39:12.045Z,38.30
2019-03-24T03:41:42.066Z,39.13
2019-03-24T03:44:11.992Z,39.40
2019-03-24T03:46:52.308Z,35.75
2019-03-24T03:49:13.753Z,36.70
2019-03-24T03:51:43.825Z,37.60
2019-03-24T03:54:13.808Z,36.70
2019-03-24T03:56:43.960Z,37.23
2019-03-24T03:59:14.428Z,36.10
2019-03-24T04:01:44.377Z,35.80
2019-03-24T04:04:14.488Z,37.83
2019-03-24T04:06:44.760Z,36.38
2019-03-24T04:09:14.717Z,38.33
2019-03-24T04:11:44.613Z,38.10
2019-03-24T04:14:14.639Z,38.38
2019-03-24T04:16:47.911Z,38.00
2019-03-24T04:19:17.926Z,38.02
2019-03-24T04:21:47.835Z,39.27
2019-03-24T04:24:17.748Z,39.65
2019-03-24T04:26:49.051Z,40.65
2019-03-24T04:29:19.107Z,42.30
2019-03-24T04:31:49.159Z,39.30
2019-03-24T04:34:19.061Z,41.00
2019-03-24T04:36:48.950Z,42.33
2019-03-24T04:39:18.961Z,41.50
2019-03-24T04:41:48.897Z,39.70
2019-03-24T04:44:18.881Z,41.35
2019-03-24T04:46:48.828Z,38.83
2019-03-24T04:49:18.819Z,41.50
2019-03-24T04:51:48.771Z,40.92
2019-03-24T04:54:18.691Z,38.05
2019-03-24T04:56:48.617Z,38.65
2019-03-24T04:59:18.543Z,37.48
2019-03-24T05:01:49.370Z,37.65
2019-03-24T05:04:19.259Z,40.15
2019-03-24T05:06:49.387Z,38.63
2019-03-24T05:09:19.385Z,38.58
2019-03-24T05:11:49.400Z,40.88
2019-03-24T05:14:19.374Z,39.42
2019-03-24T05:16:49.326Z,39.05
2019-03-24T05:19:19.376Z,40.70
2019-03-24T05:21:49.363Z,41.92
2019-03-24T05:24:19.587Z,42.17
2019-03-24T05:26:49.567Z,41.40
2019-03-24T05:29:19.525Z,40.88
2019-03-24T05:31:49.449Z,42.85
2019-03-24T05:34:19.528Z,43.55
2019-03-24T05:36:49.421Z,50.75
2019-03-24T05:39:19.375Z,53.08
2019-03-24T05:41:49.556Z,47.80
2019-03-24T05:44:19.559Z,47.60
2019-03-24T05:46:49.592Z,43.08
2019-03-24T05:49:19.641Z,44.33
2019-03-24T05:51:49.756Z,42.85
2019-03-24T05:54:19.724Z,41.83
2019-03-24T05:56:49.693Z,40.17
2019-03-24T05:59:19.670Z,41.70
2019-03-24T06:01:49.617Z,43.60
2019-03-24T06:04:19.600Z,43.38
2019-03-24T06:06:49.500Z,42.05
2019-03-24T06:09:19.463Z,42.60
2019-03-24T06:11:49.357Z,43.08
2019-03-24T06:14:19.350Z,37.58
2019-03-24T06:16:49.466Z,39.00
2019-03-24T06:19:19.633Z,38.40
2019-03-24T06:21:49.554Z,39.58
2019-03-24T06:24:19.634Z,39.40
2019-03-24T06:26:49.590Z,39.80
2019-03-24T06:29:19.668Z,38.13
2019-03-24T06:31:49.671Z,39.90
2019-03-24T06:34:19.608Z,37.83
2019-03-24T06:36:50.455Z,37.95
2019-03-24T06:39:20.739Z,37.63
2019-03-24T06:41:50.941Z,41.10
2019-03-24T06:44:21.032Z,40.85
2019-03-24T06:47:06.596Z,37.17
2019-03-24T06:49:32.518Z,35.10
2019-03-24T06:52:02.884Z,33.18
2019-03-24T06:54:33.502Z,33.67
2019-03-24T06:57:05.661Z,33.50
2019-03-24T06:59:36.039Z,33.88
2019-03-24T07:02:25.601Z,35.63
2019-03-24T07:04:55.788Z,35.73
2019-03-24T07:07:26.097Z,35.90
2019-03-24T07:09:56.181Z,35.00
2019-03-24T07:12:26.959Z,34.57
2019-03-24T07:14:57.153Z,33.80
2019-03-24T07:17:27.497Z,33.73
2019-03-24T07:19:57.706Z,34.43
2019-03-24T07:22:27.821Z,35.70
2019-03-24T07:25:17.743Z,36.00
2019-03-24T07:27:47.974Z,39.23
2019-03-24T07:30:18.917Z,39.73
2019-03-24T07:32:49.153Z,39.50
2019-03-24T07:35:19.361Z,37.33
2019-03-24T07:37:49.604Z,37.03
2019-03-24T07:40:19.996Z,38.90
2019-03-24T07:43:09.670Z,39.37
2019-03-24T07:45:45.584Z,37.87
2019-03-24T07:48:19.270Z,38.77
2019-03-24T07:50:47.749Z,36.87
2019-03-24T07:53:18.125Z,38.20
2019-03-24T07:55:48.383Z,37.23
2019-03-24T07:58:18.668Z,38.60
2019-03-24T08:00:48.962Z,37.93
2019-03-24T08:03:19.579Z,35.70
2019-03-24T08:05:49.921Z,36.00
2019-03-24T08:08:20.165Z,38.30
2019-03-24T08:10:50.256Z,39.80
2019-03-24T08:13:20.585Z,38.90
2019-03-24T08:15:51.020Z,38.90
2019-03-24T08:18:56.641Z,37.70
2019-03-24T08:21:26.818Z,37.80
2019-03-24T08:23:57.756Z,38.10
2019-03-24T08:26:27.903Z,39.37
2019-03-24T08:28:58.068Z,41.77
2019-03-24T08:31:28.438Z,42.50
2019-03-24T08:33:58.888Z,41.30
2019-03-24T08:36:29.219Z,40.93
2019-03-24T08:38:59.554Z,44.10
2019-03-24T08:41:30.218Z,42.90
2019-03-24T08:44:00.501Z,44.40
2019-03-24T08:46:30.920Z,44.37
2019-03-24T08:49:01.168Z,44.17
2019-03-24T08:51:31.358Z,41.93
2019-03-24T08:54:01.589Z,42.67
2019-03-24T08:56:31.956Z,45.07
2019-03-24T08:59:03.006Z,42.80
2019-03-24T09:01:33.327Z,42.97
2019-03-24T09:04:03.993Z,43.27
2019-03-24T09:06:34.444Z,42.83
2019-03-24T09:09:05.938Z,43.30
2019-03-24T09:11:36.403Z,41.33
2019-03-24T09:14:06.835Z,43.80
2019-03-24T09:16:37.200Z,44.13
2019-03-24T09:19:07.847Z,44.07
2019-03-24T09:21:38.177Z,43.80
2019-03-24T09:24:08.601Z,44.10
2019-03-24T09:26:39.170Z,45.90
2019-03-24T09:29:09.444Z,43.90
2019-03-24T09:31:40.039Z,43.97
2019-03-24T09:34:10.408Z,44.10
2019-03-24T09:36:40.849Z,45.47
2019-03-24T09:39:11.279Z,42.40
2019-03-24T09:41:41.839Z,43.10
2019-03-24T09:44:12.250Z,43.73
2019-03-24T09:46:42.601Z,42.63
2019-03-24T09:49:12.874Z,42.67
2019-03-24T09:51:43.184Z,43.23
2019-03-24T09:54:13.479Z,44.70
2019-03-24T09:56:43.785Z,44.93
2019-03-24T09:59:14.114Z,45.40
2019-03-24T10:01:44.516Z,48.17
2019-03-24T10:04:15.014Z,45.07
2019-03-24T10:06:45.314Z,43.60
2019-03-24T10:09:15.532Z,47.13
2019-03-24T10:11:45.918Z,45.90
2019-03-24T10:14:16.051Z,43.47
2019-03-24T10:16:46.230Z,43.40
2019-03-24T10:19:16.383Z,42.67
2019-03-24T10:21:46.503Z,39.70
2019-03-24T10:24:16.548Z,39.77
2019-03-24T10:26:46.683Z,40.77
2019-03-24T10:29:16.945Z,35.93
2019-03-24T10:31:47.049Z,37.60
2019-03-24T10:34:17.240Z,37.97
2019-03-24T10:36:47.314Z,37.50
2019-03-24T10:39:17.521Z,36.37
2019-03-24T10:41:47.722Z,35.73
2019-03-24T10:44:17.919Z,36.43
2019-03-24T10:46:48.148Z,38.20
2019-03-24T10:49:36.004Z,37.83
2019-03-24T10:52:06.158Z,35.77
2019-03-24T10:54:36.216Z,37.10
2019-03-24T10:57:06.471Z,35.47
2019-03-24T10:59:36.606Z,37.17
2019-03-24T11:02:06.891Z,37.93
2019-03-24T11:04:37.175Z,37.37
2019-03-24T11:07:07.447Z,38.23
2019-03-24T11:09:37.615Z,35.73
2019-03-24T11:13:02.965Z,36.53
2019-03-24T11:15:33.083Z,37.07
2019-03-24T11:18:03.211Z,35.40
2019-03-24T11:20:33.505Z,35.80
2019-03-24T11:23:05.423Z,36.47
2019-03-24T11:25:35.681Z,34.50
2019-03-24T11:29:00.935Z,35.00
2019-03-24T11:31:31.296Z,32.30
2019-03-24T11:34:19.025Z,34.57
2019-03-24T11:37:07.158Z,34.27
2019-03-24T11:39:37.285Z,35.70
2019-03-24T11:42:07.554Z,36.90
2019-03-24T11:44:37.639Z,35.60
2019-03-24T11:47:07.871Z,35.30
2019-03-24T11:49:46.061Z,35.60
2019-03-24T11:52:10.322Z,35.57
2019-03-24T11:54:40.463Z,35.27
2019-03-24T11:57:10.669Z,34.10
2019-03-24T11:59:40.765Z,35.57
2019-03-24T12:02:10.867Z,34.60
2019-03-24T12:04:40.936Z,34.37
2019-03-24T12:07:10.982Z,35.30
2019-03-24T12:09:41.230Z,33.80
2019-03-24T12:12:11.513Z,28.90
2019-03-24T12:15:00.361Z,31.67
2019-03-24T12:17:30.459Z,30.83
2019-03-24T12:20:00.686Z,28.63
2019-03-24T12:22:31.005Z,29.80
2019-03-24T12:25:01.489Z,30.97
2019-03-24T12:27:32.272Z,30.97
2019-03-24T12:30:02.607Z,31.03
2019-03-24T12:32:32.740Z,29.10
2019-03-24T12:35:02.767Z,29.73
2019-03-24T12:37:32.997Z,29.40
2019-03-24T12:40:03.078Z,27.93
2019-03-24T12:42:33.253Z,43.97
2019-03-24T12:45:03.321Z,47.07
2019-03-24T12:47:33.656Z,44.63
2019-03-24T12:50:08.792Z,48.37
2019-03-24T12:52:35.546Z,48.70
2019-03-24T12:55:05.917Z,48.33
2019-03-24T12:57:36.523Z,47.90
2019-03-24T13:00:09.320Z,47.83
2019-03-24T13:02:39.367Z,46.87
2019-03-24T13:05:29.193Z,49.00
2019-03-24T13:08:01.406Z,46.50
2019-03-24T13:10:31.581Z,48.40
2019-03-24T13:13:01.766Z,47.80
2019-03-24T13:15:31.950Z,48.93
2019-03-24T13:18:02.214Z,46.80
2019-03-24T13:20:38.053Z,47.80
2019-03-24T13:23:04.177Z,46.80
2019-03-24T13:25:36.255Z,45.97
2019-03-24T13:28:06.145Z,46.77
2019-03-24T13:30:36.461Z,46.73
2019-03-24T13:33:06.726Z,48.50
2019-03-24T13:35:36.823Z,49.63
2019-03-24T13:38:06.953Z,48.70
2019-03-24T13:40:37.074Z,47.50
2019-03-24T13:43:07.186Z,49.83
2019-03-24T13:45:37.395Z,47.10
2019-03-24T13:48:07.613Z,46.77
2019-03-24T13:50:37.755Z,47.37
2019-03-24T13:53:07.838Z,44.20
2019-03-24T13:55:56.325Z,45.43
2019-03-24T13:58:26.379Z,42.53
2019-03-24T14:00:56.564Z,43.43
2019-03-24T14:03:26.677Z,43.90
2019-03-24T14:05:59.154Z,45.87
2019-03-24T14:08:29.202Z,46.37
2019-03-24T14:10:59.342Z,44.27
2019-03-24T14:13:29.609Z,42.90
2019-03-24T14:15:59.665Z,43.60
2019-03-24T14:18:30.709Z,43.60
2019-03-24T14:21:01.025Z,41.33
2019-03-24T14:23:31.398Z,42.30
2019-03-24T14:26:01.534Z,43.03
2019-03-24T14:28:31.595Z,43.00
2019-03-24T14:31:01.766Z,40.40
2019-03-24T14:33:31.817Z,41.07
2019-03-24T14:36:02.012Z,41.83
2019-03-24T14:38:32.013Z,41.43
2019-03-24T14:41:02.089Z,40.03
2019-03-24T14:43:33.761Z,37.80
2019-03-24T14:46:03.992Z,39.30
2019-03-24T14:48:36.219Z,38.50
2019-03-24T14:51:06.114Z,38.73
2019-03-24T14:53:36.353Z,40.37
2019-03-24T14:56:06.581Z,42.03
2019-03-24T14:58:36.689Z,39.03
2019-03-24T15:01:06.985Z,38.17
2019-03-24T15:03:38.306Z,37.90
2019-03-24T15:06:26.164Z,37.67
2019-03-24T15:08:56.334Z,37.97
2019-03-24T15:11:26.512Z,36.80
2019-03-24T15:13:56.606Z,34.80
2019-03-24T15:16:27.006Z,37.13
2019-03-24T15:18:57.212Z,35.10
2019-03-24T15:21:27.375Z,36.23
2019-03-24T15:23:57.526Z,35.57
2019-03-24T15:26:45.414Z,33.10
2019-03-24T15:29:34.907Z,35.13
2019-03-24T15:32:05.014Z,33.60
2019-03-24T15:34:35.514Z,35.63
2019-03-24T15:37:05.606Z,36.83
2019-03-24T15:39:35.728Z,36.30
2019-03-24T15:42:05.824Z,36.67
2019-03-24T15:48:17.041Z,36.33
2019-03-24T15:50:47.344Z,37.20
2019-03-24T15:53:17.785Z,36.97
2019-03-24T15:55:48.149Z,36.60
2019-03-24T15:58:18.299Z,36.27
2019-03-24T16:00:49.771Z,35.67
2019-03-24T16:03:20.239Z,37.07
2019-03-24T16:05:50.590Z,38.77
2019-03-24T16:08:20.907Z,39.20
2019-03-24T16:10:51.239Z,36.60
2019-03-24T16:13:21.369Z,38.00
2019-03-24T16:15:53.825Z,38.00
2019-03-24T16:18:23.923Z,40.57
2019-03-24T16:20:54.077Z,39.07
2019-03-24T16:23:24.208Z,38.50
2019-03-24T16:25:55.762Z,37.23
2019-03-24T16:28:26.016Z,39.90
2019-03-24T16:30:56.181Z,39.47
2019-03-24T16:33:26.444Z,39.97
2019-03-24T16:35:56.706Z,40.97
2019-03-24T16:38:26.907Z,38.27
2019-03-24T16:40:57.118Z,40.13
2019-03-24T16:43:27.309Z,43.10
2019-03-24T16:45:57.570Z,37.30
2019-03-24T16:48:36.483Z,37.90
2019-03-24T16:51:00.207Z,38.37
2019-03-24T16:53:30.429Z,39.23
2019-03-24T16:56:00.683Z,38.43
2019-03-24T16:58:30.852Z,39.27
2019-03-24T17:01:01.095Z,38.00
2019-03-24T17:04:06.059Z,37.63
2019-03-24T17:06:36.224Z,38.03
2019-03-24T17:09:07.895Z,37.60
2019-03-24T17:11:38.192Z,38.23
2019-03-24T17:14:08.488Z,38.83
2019-03-24T17:16:39.165Z,39.70
2019-03-24T17:19:09.919Z,38.80
2019-03-24T17:21:49.543Z,38.53
2019-03-24T17:24:12.013Z,39.40
2019-03-24T17:26:42.256Z,38.93
2019-03-24T17:29:53.644Z,38.47
2019-03-24T17:32:24.025Z,40.77
2019-03-24T17:34:54.277Z,39.83
2019-03-24T17:37:24.864Z,39.83
2019-03-24T17:39:55.065Z,43.83
2019-03-24T17:42:25.674Z,43.47
2019-03-24T17:44:56.020Z,44.93
2019-03-24T17:47:26.227Z,42.70
2019-03-24T17:50:14.282Z,43.90
2019-03-24T17:52:44.523Z,40.33
2019-03-24T17:55:15.645Z,41.20
2019-03-24T17:57:45.785Z,41.97
2019-03-24T18:00:18.311Z,41.97
2019-03-24T18:02:48.534Z,41.20
2019-03-24T18:05:18.847Z,42.17
2019-03-24T18:07:49.184Z,42.70
2019-03-24T18:10:19.357Z,42.33
2019-03-24T18:12:49.595Z,40.97
2019-03-24T18:15:19.848Z,42.67
2019-03-24T18:17:50.034Z,43.67
2019-03-24T18:20:30.490Z,41.83
2019-03-24T18:23:00.911Z,42.87
2019-03-24T18:25:31.200Z,42.67
2019-03-24T18:28:01.527Z,43.60
2019-03-24T18:30:31.627Z,44.43
2019-03-24T18:33:02.378Z,44.67
2019-03-24T18:35:35.134Z,44.53
2019-03-24T18:38:05.745Z,45.70
2019-03-24T18:40:36.285Z,43.03
2019-03-24T18:43:06.582Z,42.47
2019-03-24T18:45:37.345Z,42.60
2019-03-24T18:48:08.325Z,43.60
2019-03-24T18:50:38.487Z,43.00
2019-03-24T18:53:08.649Z,44.40
2019-03-24T18:55:39.008Z,43.60
2019-03-24T18:58:09.279Z,42.03
2019-03-24T19:00:39.778Z,42.23
2019-03-24T19:03:09.856Z,40.63
2019-03-24T19:05:40.226Z,42.30
2019-03-24T19:08:10.490Z,42.70
2019-03-24T19:10:40.888Z,44.30
2019-03-24T19:13:28.542Z,44.63
2019-03-24T19:15:58.708Z,49.43
2019-03-24T19:18:28.811Z,49.70
2019-03-24T19:20:59.258Z,44.17
2019-03-24T19:23:29.778Z,44.57
2019-03-24T19:26:00.426Z,44.67
2019-03-24T19:28:30.609Z,43.27
2019-03-24T19:31:53.993Z,44.33
2019-03-24T19:34:24.271Z,44.67
2019-03-24T19:36:54.584Z,50.83
2019-03-24T19:39:25.205Z,62.20
2019-03-24T19:41:55.650Z,51.63
2019-03-24T19:44:25.990Z,46.90
2019-03-24T19:46:56.313Z,49.57
2019-03-24T19:49:26.633Z,45.63
2019-03-24T19:51:57.365Z,47.70
2019-03-24T19:54:27.704Z,48.77
2019-03-24T19:56:58.017Z,47.57
2019-03-24T19:59:28.393Z,47.53
2019-03-24T20:01:58.950Z,42.47
2019-03-24T20:04:46.898Z,45.50
2019-03-24T20:07:17.632Z,45.00
2019-03-24T20:09:47.943Z,47.10
2019-03-24T20:12:19.795Z,49.13
2019-03-24T20:14:50.181Z,49.77
2019-03-24T20:17:20.475Z,54.77
2019-03-24T20:20:08.181Z,49.30
2019-03-24T20:22:38.563Z,48.03
2019-03-24T20:25:09.501Z,47.30
2019-03-24T20:27:39.817Z,45.10
2019-03-24T20:30:11.117Z,47.20
2019-03-24T20:32:41.312Z,51.40
2019-03-24T20:35:13.469Z,51.90
2019-03-24T20:37:44.129Z,51.13
2019-03-24T20:40:14.579Z,51.00
2019-03-24T20:42:45.409Z,48.00
2019-03-24T20:45:16.095Z,50.83
2019-03-24T20:47:46.451Z,50.60
2019-03-24T20:50:51.982Z,49.90
2019-03-24T20:53:22.494Z,49.47
2019-03-24T20:55:52.762Z,48.33
2019-03-24T20:58:23.159Z,51.33
2019-03-24T21:00:53.324Z,50.70
2019-03-24T21:03:23.703Z,49.27
2019-03-24T21:05:53.972Z,50.73
2019-03-24T21:08:24.331Z,48.90
2019-03-24T21:10:54.848Z,51.57
2019-03-24T21:13:25.193Z,52.37
2019-03-24T21:15:55.449Z,50.63
2019-03-24T21:18:25.615Z,50.07
2019-03-24T21:20:55.900Z,53.63
2019-03-24T21:23:29.766Z,55.90
2019-03-24T21:25:58.147Z,57.90
2019-03-24T21:28:28.479Z,55.00
2019-03-24T21:30:58.692Z,50.07
2019-03-24T21:33:29.094Z,49.77
2019-03-24T21:35:59.453Z,51.03
2019-03-24T21:38:29.752Z,57.80
2019-03-24T21:41:00.116Z,54.30
2019-03-24T21:43:30.345Z,49.17
2019-03-24T21:46:00.657Z,51.83
2019-03-24T21:48:30.841Z,48.70
2019-03-24T21:51:01.000Z,50.50
2019-03-24T21:53:40.289Z,51.97
2019-03-24T21:56:03.147Z,48.70
2019-03-24T21:58:33.301Z,49.70
2019-03-24T22:01:03.447Z,50.50
2019-03-24T22:03:33.624Z,49.83
2019-03-24T22:06:04.042Z,50.03
2019-03-24T22:08:34.354Z,46.80
2019-03-24T22:11:04.590Z,48.63
2019-03-24T22:13:34.745Z,48.40
2019-03-24T22:16:04.953Z,45.90
2019-03-24T22:18:35.600Z,48.80
2019-03-24T22:21:05.730Z,46.93
2019-03-24T22:23:35.866Z,46.77
2019-03-24T22:26:06.373Z,45.57
2019-03-24T22:28:36.485Z,48.10
2019-03-24T22:31:06.630Z,45.17
2019-03-24T22:33:36.819Z,47.83
2019-03-24T22:36:07.368Z,48.40
2019-03-24T22:38:37.592Z,48.67
2019-03-24T22:41:07.756Z,48.90
2019-03-24T22:43:38.045Z,47.07
2019-03-24T22:46:08.088Z,46.43
2019-03-24T22:48:38.287Z,48.43
2019-03-24T22:51:08.386Z,47.53
2019-03-24T22:53:38.520Z,49.20
2019-03-24T22:56:08.657Z,47.87
2019-03-24T22:58:39.261Z,47.97
2019-03-24T23:01:10.026Z,46.87
2019-03-24T23:03:40.119Z,45.23
2019-03-24T23:06:10.259Z,47.27
2019-03-24T23:08:40.390Z,47.37
2019-03-24T23:11:10.630Z,49.27
2019-03-24T23:13:40.878Z,49.10
2019-03-24T23:16:10.928Z,47.80
2019-03-24T23:18:41.002Z,47.13
2019-03-24T23:21:11.114Z,46.90
2019-03-24T23:23:41.205Z,47.90
2019-03-24T23:26:11.349Z,46.90
2019-03-24T23:28:41.458Z,44.77
2019-03-24T23:31:11.546Z,45.20
2019-03-24T23:33:41.701Z,45.37
2019-03-24T23:36:11.865Z,47.13
2019-03-24T23:38:42.281Z,46.70
2019-03-24T23:41:12.427Z,40.93
2019-03-24T23:43:43.074Z,42.47
2019-03-24T23:46:13.257Z,43.80
2019-03-24T23:48:43.457Z,42.80
2019-03-24T23:51:13.703Z,41.47
2019-03-24T23:53:43.870Z,40.80
2019-03-24T23:56:13.946Z,42.27
2019-03-24T23:58:44.014Z,40.60
